sensor_id;sensor_type;location;lat;lon;timestamp;temperature;humidity
56076;DHT22;41951;49.022;12.066;2023-04-21T00:01:01;8.20;99.90
56076;DHT22;41951;49.022;12.066;2023-04-21T00:03:27;8.10;99.90
56076;DHT22;41951;49.022;12.066;2023-04-21T00:05:57;8.10;99.90
56076;DHT22;41951;49.022;12.066;2023-04-21T00:08:23;8.00;99.90
56076;DHT22;41951;49.022;12.066;2023-04-21T00:10:49;8.00;99.90
56076;DHT22;41951;49.022;12.066;2023-04-21T00:13:14;7.90;99.90
56076;DHT22;41951;49.022;12.066;2023-04-21T00:15:40;8.00;99.90
56076;DHT22;41951;49.022;12.066;2023-04-21T00:18:06;8.00;99.90
56076;DHT22;41951;49.022;12.066;2023-04-21T00:20:32;8.00;99.90
56076;DHT22;41951;49.022;12.066;2023-04-21T00:22:58;8.10;99.90
56076;DHT22;41951;49.022;12.066;2023-04-21T00:25:24;8.00;99.90
56076;DHT22;41951;49.022;12.066;2023-04-21T00:27:50;8.00;99.90
56076;DHT22;41951;49.022;12.066;2023-04-21T00:30:16;8.00;99.90
56076;DHT22;41951;49.022;12.066;2023-04-21T00:32:42;8.00;99.90
56076;DHT22;41951;49.022;12.066;2023-04-21T00:35:08;8.00;99.90
56076;DHT22;41951;49.022;12.066;2023-04-21T00:37:34;7.90;99.90
56076;DHT22;41951;49.022;12.066;2023-04-21T00:39:59;7.90;99.90
56076;DHT22;41951;49.022;12.066;2023-04-21T00:42:25;7.80;99.90
56076;DHT22;41951;49.022;12.066;2023-04-21T00:44:50;7.80;99.90
56076;DHT22;41951;49.022;12.066;2023-04-21T00:47:19;7.80;99.90
56076;DHT22;41951;49.022;12.066;2023-04-21T00:49:45;7.80;99.90
56076;DHT22;41951;49.022;12.066;2023-04-21T00:52:13;7.80;99.90
56076;DHT22;41951;49.022;12.066;2023-04-21T00:54:41;7.80;99.90
56076;DHT22;41951;49.022;12.066;2023-04-21T00:57:07;7.80;99.90
56076;DHT22;41951;49.022;12.066;2023-04-21T00:59:33;7.80;99.90
56076;DHT22;41951;49.022;12.066;2023-04-21T01:01:59;7.90;99.90
56076;DHT22;41951;49.022;12.066;2023-04-21T01:04:25;7.80;99.90
56076;DHT22;41951;49.022;12.066;2023-04-21T01:06:51;7.70;99.90
56076;DHT22;41951;49.022;12.066;2023-04-21T01:09:17;7.60;99.90
56076;DHT22;41951;49.022;12.066;2023-04-21T01:12:01;7.60;99.90
56076;DHT22;41951;49.022;12.066;2023-04-21T01:14:28;7.60;99.90
56076;DHT22;41951;49.022;12.066;2023-04-21T01:16:53;7.60;99.90
56076;DHT22;41951;49.022;12.066;2023-04-21T01:19:19;7.60;99.90
56076;DHT22;41951;49.022;12.066;2023-04-21T01:21:45;7.60;99.90
56076;DHT22;41951;49.022;12.066;2023-04-21T01:24:11;7.50;99.90
56076;DHT22;41951;49.022;12.066;2023-04-21T01:26:37;7.50;99.90
56076;DHT22;41951;49.022;12.066;2023-04-21T01:31:31;7.30;99.90
56076;DHT22;41951;49.022;12.066;2023-04-21T01:33:57;7.20;99.90
56076;DHT22;41951;49.022;12.066;2023-04-21T01:36:22;7.80;99.90
56076;DHT22;41951;49.022;12.066;2023-04-21T01:38:48;7.20;99.90
56076;DHT22;41951;49.022;12.066;2023-04-21T01:41:14;7.30;99.90
56076;DHT22;41951;49.022;12.066;2023-04-21T01:43:40;7.30;99.90
56076;DHT22;41951;49.022;12.066;2023-04-21T01:46:06;7.30;99.90
56076;DHT22;41951;49.022;12.066;2023-04-21T01:48:32;7.40;99.90
56076;DHT22;41951;49.022;12.066;2023-04-21T01:50:57;7.40;99.90
56076;DHT22;41951;49.022;12.066;2023-04-21T01:53:23;7.30;99.90
56076;DHT22;41951;49.022;12.066;2023-04-21T01:55:48;7.30;99.90
56076;DHT22;41951;49.022;12.066;2023-04-21T01:58:14;7.20;99.90
56076;DHT22;41951;49.022;12.066;2023-04-21T02:00:40;7.20;99.90
56076;DHT22;41951;49.022;12.066;2023-04-21T02:03:05;7.10;99.90
56076;DHT22;41951;49.022;12.066;2023-04-21T02:05:31;7.10;99.90
56076;DHT22;41951;49.022;12.066;2023-04-21T02:07:57;7.00;99.90
56076;DHT22;41951;49.022;12.066;2023-04-21T02:10:22;7.00;99.90
56076;DHT22;41951;49.022;12.066;2023-04-21T02:12:48;7.00;99.90
56076;DHT22;41951;49.022;12.066;2023-04-21T02:15:14;7.00;99.90
56076;DHT22;41951;49.022;12.066;2023-04-21T02:17:39;6.90;99.90
56076;DHT22;41951;49.022;12.066;2023-04-21T02:20:07;6.90;99.90
56076;DHT22;41951;49.022;12.066;2023-04-21T02:22:33;7.00;99.90
56076;DHT22;41951;49.022;12.066;2023-04-21T02:24:59;7.00;99.90
56076;DHT22;41951;49.022;12.066;2023-04-21T02:27:24;7.10;99.90
56076;DHT22;41951;49.022;12.066;2023-04-21T02:29:50;7.10;99.90
56076;DHT22;41951;49.022;12.066;2023-04-21T02:32:16;7.10;99.90
56076;DHT22;41951;49.022;12.066;2023-04-21T02:34:41;7.10;99.90
56076;DHT22;41951;49.022;12.066;2023-04-21T02:37:07;7.10;99.90
56076;DHT22;41951;49.022;12.066;2023-04-21T02:39:32;7.10;99.90
56076;DHT22;41951;49.022;12.066;2023-04-21T02:41:58;7.00;99.90
56076;DHT22;41951;49.022;12.066;2023-04-21T02:44:23;7.00;99.90
56076;DHT22;41951;49.022;12.066;2023-04-21T02:46:49;7.00;99.90
56076;DHT22;41951;49.022;12.066;2023-04-21T02:49:15;7.00;99.90
56076;DHT22;41951;49.022;12.066;2023-04-21T02:51:40;7.00;99.90
56076;DHT22;41951;49.022;12.066;2023-04-21T02:54:06;7.10;99.90
56076;DHT22;41951;49.022;12.066;2023-04-21T02:56:31;7.10;99.90
56076;DHT22;41951;49.022;12.066;2023-04-21T02:58:59;7.00;99.90
56076;DHT22;41951;49.022;12.066;2023-04-21T03:01:24;6.90;99.90
56076;DHT22;41951;49.022;12.066;2023-04-21T03:03:50;6.80;99.90
56076;DHT22;41951;49.022;12.066;2023-04-21T03:06:16;6.80;99.90
56076;DHT22;41951;49.022;12.066;2023-04-21T03:08:41;6.80;99.90
56076;DHT22;41951;49.022;12.066;2023-04-21T03:11:07;6.80;99.90
56076;DHT22;41951;49.022;12.066;2023-04-21T03:13:32;6.80;99.90
56076;DHT22;41951;49.022;12.066;2023-04-21T03:15:58;6.80;99.90
56076;DHT22;41951;49.022;12.066;2023-04-21T03:18:24;6.90;99.90
56076;DHT22;41951;49.022;12.066;2023-04-21T03:20:49;6.90;99.90
56076;DHT22;41951;49.022;12.066;2023-04-21T03:23:15;6.80;99.90
56076;DHT22;41951;49.022;12.066;2023-04-21T03:25:41;6.80;99.90
56076;DHT22;41951;49.022;12.066;2023-04-21T03:28:07;6.80;99.90
56076;DHT22;41951;49.022;12.066;2023-04-21T03:30:32;6.70;99.90
56076;DHT22;41951;49.022;12.066;2023-04-21T03:32:58;6.60;99.90
56076;DHT22;41951;49.022;12.066;2023-04-21T03:35:24;6.60;99.90
56076;DHT22;41951;49.022;12.066;2023-04-21T03:37:50;6.60;99.90
56076;DHT22;41951;49.022;12.066;2023-04-21T03:40:15;6.70;99.90
56076;DHT22;41951;49.022;12.066;2023-04-21T03:42:41;6.70;99.90
56076;DHT22;41951;49.022;12.066;2023-04-21T03:45:08;6.70;99.90
56076;DHT22;41951;49.022;12.066;2023-04-21T03:47:34;6.80;99.90
56076;DHT22;41951;49.022;12.066;2023-04-21T03:50:02;6.90;99.90
56076;DHT22;41951;49.022;12.066;2023-04-21T03:52:28;6.90;99.90
56076;DHT22;41951;49.022;12.066;2023-04-21T03:54:53;6.80;99.90
56076;DHT22;41951;49.022;12.066;2023-04-21T03:57:19;6.70;99.90
56076;DHT22;41951;49.022;12.066;2023-04-21T03:59:44;6.70;99.90
56076;DHT22;41951;49.022;12.066;2023-04-21T04:02:10;6.70;99.90
56076;DHT22;41951;49.022;12.066;2023-04-21T04:04:36;6.70;99.90
56076;DHT22;41951;49.022;12.066;2023-04-21T04:07:02;6.70;99.90
56076;DHT22;41951;49.022;12.066;2023-04-21T04:09:27;6.70;99.90
56076;DHT22;41951;49.022;12.066;2023-04-21T04:11:53;6.70;99.90
56076;DHT22;41951;49.022;12.066;2023-04-21T04:14:19;6.70;99.90
56076;DHT22;41951;49.022;12.066;2023-04-21T04:16:45;6.60;99.90
56076;DHT22;41951;49.022;12.066;2023-04-21T04:19:10;6.60;99.90
56076;DHT22;41951;49.022;12.066;2023-04-21T04:21:36;6.50;99.90
56076;DHT22;41951;49.022;12.066;2023-04-21T04:24:02;6.40;99.90
56076;DHT22;41951;49.022;12.066;2023-04-21T04:26:29;6.40;99.90
56076;DHT22;41951;49.022;12.066;2023-04-21T04:28:58;6.40;99.90
56076;DHT22;41951;49.022;12.066;2023-04-21T04:31:28;6.40;99.90
56076;DHT22;41951;49.022;12.066;2023-04-21T04:33:55;6.50;99.90
56076;DHT22;41951;49.022;12.066;2023-04-21T04:36:20;6.40;99.90
56076;DHT22;41951;49.022;12.066;2023-04-21T04:38:46;6.50;99.90
56076;DHT22;41951;49.022;12.066;2023-04-21T04:41:12;6.50;99.90
56076;DHT22;41951;49.022;12.066;2023-04-21T04:43:40;6.60;99.90
56076;DHT22;41951;49.022;12.066;2023-04-21T04:46:06;6.70;99.90
56076;DHT22;41951;49.022;12.066;2023-04-21T04:48:33;6.70;99.90
56076;DHT22;41951;49.022;12.066;2023-04-21T04:50:59;6.80;99.90
56076;DHT22;41951;49.022;12.066;2023-04-21T04:53:27;6.90;99.90
56076;DHT22;41951;49.022;12.066;2023-04-21T04:55:52;6.90;99.90
56076;DHT22;41951;49.022;12.066;2023-04-21T04:58:18;6.90;99.90
56076;DHT22;41951;49.022;12.066;2023-04-21T05:00:43;7.00;99.90
56076;DHT22;41951;49.022;12.066;2023-04-21T05:03:09;7.00;99.90
56076;DHT22;41951;49.022;12.066;2023-04-21T05:05:35;7.00;99.90
56076;DHT22;41951;49.022;12.066;2023-04-21T05:08:00;7.00;99.90
56076;DHT22;41951;49.022;12.066;2023-04-21T05:10:26;7.00;99.90
56076;DHT22;41951;49.022;12.066;2023-04-21T05:12:51;7.00;99.90
56076;DHT22;41951;49.022;12.066;2023-04-21T05:15:17;7.10;99.90
56076;DHT22;41951;49.022;12.066;2023-04-21T05:17:43;7.10;99.90
56076;DHT22;41951;49.022;12.066;2023-04-21T05:20:08;7.00;99.90
56076;DHT22;41951;49.022;12.066;2023-04-21T05:22:37;7.00;99.90
56076;DHT22;41951;49.022;12.066;2023-04-21T05:25:04;7.00;99.90
56076;DHT22;41951;49.022;12.066;2023-04-21T05:27:30;6.90;99.90
56076;DHT22;41951;49.022;12.066;2023-04-21T05:29:55;7.00;99.90
56076;DHT22;41951;49.022;12.066;2023-04-21T05:32:21;7.10;99.90
56076;DHT22;41951;49.022;12.066;2023-04-21T05:34:46;7.20;99.90
56076;DHT22;41951;49.022;12.066;2023-04-21T05:37:12;7.20;99.90
56076;DHT22;41951;49.022;12.066;2023-04-21T05:39:37;7.30;99.90
56076;DHT22;41951;49.022;12.066;2023-04-21T05:42:03;7.30;99.90
56076;DHT22;41951;49.022;12.066;2023-04-21T05:44:29;7.40;99.90
56076;DHT22;41951;49.022;12.066;2023-04-21T05:46:54;7.40;99.90
56076;DHT22;41951;49.022;12.066;2023-04-21T05:49:20;7.50;99.90
56076;DHT22;41951;49.022;12.066;2023-04-21T05:51:45;7.60;99.90
56076;DHT22;41951;49.022;12.066;2023-04-21T05:54:11;7.60;99.90
56076;DHT22;41951;49.022;12.066;2023-04-21T05:56:37;7.70;99.90
56076;DHT22;41951;49.022;12.066;2023-04-21T05:59:02;7.90;99.90
56076;DHT22;41951;49.022;12.066;2023-04-21T06:01:28;8.00;99.90
56076;DHT22;41951;49.022;12.066;2023-04-21T06:03:53;8.20;99.90
56076;DHT22;41951;49.022;12.066;2023-04-21T06:06:19;8.30;99.90
56076;DHT22;41951;49.022;12.066;2023-04-21T06:08:45;8.40;99.90
56076;DHT22;41951;49.022;12.066;2023-04-21T06:11:10;8.50;99.90
56076;DHT22;41951;49.022;12.066;2023-04-21T06:13:36;8.60;99.90
56076;DHT22;41951;49.022;12.066;2023-04-21T06:16:02;8.70;99.90
56076;DHT22;41951;49.022;12.066;2023-04-21T06:18:27;8.80;99.90
56076;DHT22;41951;49.022;12.066;2023-04-21T06:20:53;8.80;99.90
56076;DHT22;41951;49.022;12.066;2023-04-21T06:23:19;8.90;99.90
56076;DHT22;41951;49.022;12.066;2023-04-21T06:25:45;8.90;99.90
56076;DHT22;41951;49.022;12.066;2023-04-21T06:28:11;9.00;99.90
56076;DHT22;41951;49.022;12.066;2023-04-21T06:30:37;9.00;99.90
56076;DHT22;41951;49.022;12.066;2023-04-21T06:33:02;9.10;99.90
56076;DHT22;41951;49.022;12.066;2023-04-21T06:35:29;9.20;99.90
56076;DHT22;41951;49.022;12.066;2023-04-21T06:37:55;9.20;99.90
56076;DHT22;41951;49.022;12.066;2023-04-21T06:40:20;9.20;99.90
56076;DHT22;41951;49.022;12.066;2023-04-21T06:42:46;9.20;99.90
56076;DHT22;41951;49.022;12.066;2023-04-21T06:45:12;9.30;99.90
56076;DHT22;41951;49.022;12.066;2023-04-21T06:47:37;9.30;99.90
56076;DHT22;41951;49.022;12.066;2023-04-21T06:50:03;9.40;99.90
56076;DHT22;41951;49.022;12.066;2023-04-21T06:52:29;9.50;99.90
56076;DHT22;41951;49.022;12.066;2023-04-21T06:54:55;9.70;99.90
56076;DHT22;41951;49.022;12.066;2023-04-21T06:57:20;9.80;99.90
56076;DHT22;41951;49.022;12.066;2023-04-21T06:59:46;9.90;99.90
56076;DHT22;41951;49.022;12.066;2023-04-21T07:02:11;9.90;99.90
56076;DHT22;41951;49.022;12.066;2023-04-21T07:04:37;10.00;99.90
56076;DHT22;41951;49.022;12.066;2023-04-21T07:07:02;10.10;99.90
56076;DHT22;41951;49.022;12.066;2023-04-21T07:09:28;10.20;99.90
56076;DHT22;41951;49.022;12.066;2023-04-21T07:11:55;10.30;99.90
56076;DHT22;41951;49.022;12.066;2023-04-21T07:14:20;10.50;99.90
56076;DHT22;41951;49.022;12.066;2023-04-21T07:16:46;10.50;99.90
56076;DHT22;41951;49.022;12.066;2023-04-21T07:19:12;10.70;99.90
56076;DHT22;41951;49.022;12.066;2023-04-21T07:21:37;10.80;99.90
56076;DHT22;41951;49.022;12.066;2023-04-21T07:24:04;10.90;99.90
56076;DHT22;41951;49.022;12.066;2023-04-21T07:26:30;11.10;99.90
56076;DHT22;41951;49.022;12.066;2023-04-21T07:28:56;11.20;99.90
56076;DHT22;41951;49.022;12.066;2023-04-21T07:31:23;11.30;99.90
56076;DHT22;41951;49.022;12.066;2023-04-21T07:33:49;11.50;99.90
56076;DHT22;41951;49.022;12.066;2023-04-21T07:36:15;11.60;99.90
56076;DHT22;41951;49.022;12.066;2023-04-21T07:38:41;11.70;99.90
56076;DHT22;41951;49.022;12.066;2023-04-21T07:41:11;11.80;99.90
56076;DHT22;41951;49.022;12.066;2023-04-21T07:43:37;11.90;99.90
56076;DHT22;41951;49.022;12.066;2023-04-21T07:46:03;12.10;99.90
56076;DHT22;41951;49.022;12.066;2023-04-21T07:48:29;12.10;99.90
56076;DHT22;41951;49.022;12.066;2023-04-21T07:50:55;12.20;99.90
56076;DHT22;41951;49.022;12.066;2023-04-21T07:53:23;12.30;99.90
56076;DHT22;41951;49.022;12.066;2023-04-21T07:55:48;12.40;99.90
56076;DHT22;41951;49.022;12.066;2023-04-21T07:58:14;12.40;99.90
56076;DHT22;41951;49.022;12.066;2023-04-21T08:00:41;12.50;99.90
56076;DHT22;41951;49.022;12.066;2023-04-21T08:03:06;12.60;99.90
56076;DHT22;41951;49.022;12.066;2023-04-21T08:05:32;12.80;99.90
56076;DHT22;41951;49.022;12.066;2023-04-21T08:07:58;12.90;99.90
56076;DHT22;41951;49.022;12.066;2023-04-21T08:10:23;13.00;99.90
56076;DHT22;41951;49.022;12.066;2023-04-21T08:12:49;13.10;99.90
56076;DHT22;41951;49.022;12.066;2023-04-21T08:15:15;13.20;99.90
56076;DHT22;41951;49.022;12.066;2023-04-21T08:17:41;13.40;99.90
56076;DHT22;41951;49.022;12.066;2023-04-21T08:20:07;13.40;99.90
56076;DHT22;41951;49.022;12.066;2023-04-21T08:22:33;13.40;99.90
56076;DHT22;41951;49.022;12.066;2023-04-21T08:25:00;13.50;99.90
56076;DHT22;41951;49.022;12.066;2023-04-21T08:27:25;13.60;99.90
56076;DHT22;41951;49.022;12.066;2023-04-21T08:29:51;13.60;99.90
56076;DHT22;41951;49.022;12.066;2023-04-21T08:32:16;13.70;99.90
56076;DHT22;41951;49.022;12.066;2023-04-21T08:34:48;13.70;99.90
56076;DHT22;41951;49.022;12.066;2023-04-21T08:37:14;13.80;99.90
56076;DHT22;41951;49.022;12.066;2023-04-21T08:39:40;13.90;99.90
56076;DHT22;41951;49.022;12.066;2023-04-21T08:42:07;13.90;99.90
56076;DHT22;41951;49.022;12.066;2023-04-21T08:44:32;14.10;99.90
56076;DHT22;41951;49.022;12.066;2023-04-21T08:46:58;14.20;99.90
56076;DHT22;41951;49.022;12.066;2023-04-21T08:49:29;14.30;99.90
56076;DHT22;41951;49.022;12.066;2023-04-21T08:51:55;14.20;99.90
56076;DHT22;41951;49.022;12.066;2023-04-21T08:54:21;14.00;99.90
56076;DHT22;41951;49.022;12.066;2023-04-21T08:56:49;14.00;99.90
56076;DHT22;41951;49.022;12.066;2023-04-21T08:59:15;14.00;99.90
56076;DHT22;41951;49.022;12.066;2023-04-21T09:02:14;14.00;99.90
56076;DHT22;41951;49.022;12.066;2023-04-21T09:04:45;14.00;99.90
56076;DHT22;41951;49.022;12.066;2023-04-21T09:07:11;14.00;99.90
56076;DHT22;41951;49.022;12.066;2023-04-21T09:09:55;14.10;99.90
56076;DHT22;41951;49.022;12.066;2023-04-21T09:12:21;14.30;99.90
56076;DHT22;41951;49.022;12.066;2023-04-21T09:14:47;14.50;99.90
56076;DHT22;41951;49.022;12.066;2023-04-21T09:17:15;14.70;99.90
56076;DHT22;41951;49.022;12.066;2023-04-21T09:19:41;14.80;99.90
56076;DHT22;41951;49.022;12.066;2023-04-21T09:22:06;14.70;99.90
56076;DHT22;41951;49.022;12.066;2023-04-21T09:24:32;14.70;99.90
56076;DHT22;41951;49.022;12.066;2023-04-21T09:26:57;14.70;99.90
56076;DHT22;41951;49.022;12.066;2023-04-21T09:29:24;14.70;99.90
56076;DHT22;41951;49.022;12.066;2023-04-21T09:31:50;14.70;99.90
56076;DHT22;41951;49.022;12.066;2023-04-21T09:34:22;14.60;99.90
56076;DHT22;41951;49.022;12.066;2023-04-21T09:36:58;14.60;99.90
56076;DHT22;41951;49.022;12.066;2023-04-21T09:39:25;14.70;99.90
56076;DHT22;41951;49.022;12.066;2023-04-21T09:41:51;14.70;99.90
56076;DHT22;41951;49.022;12.066;2023-04-21T09:44:17;14.80;99.90
56076;DHT22;41951;49.022;12.066;2023-04-21T09:46:43;14.90;99.90
56076;DHT22;41951;49.022;12.066;2023-04-21T09:49:13;15.10;99.90
56076;DHT22;41951;49.022;12.066;2023-04-21T09:51:42;15.20;99.90
56076;DHT22;41951;49.022;12.066;2023-04-21T09:54:18;15.30;99.90
56076;DHT22;41951;49.022;12.066;2023-04-21T09:56:48;15.40;99.90
56076;DHT22;41951;49.022;12.066;2023-04-21T09:59:18;15.60;99.90
56076;DHT22;41951;49.022;12.066;2023-04-21T10:01:47;15.70;99.90
56076;DHT22;41951;49.022;12.066;2023-04-21T10:04:14;15.80;99.90
56076;DHT22;41951;49.022;12.066;2023-04-21T10:06:40;15.90;99.90
56076;DHT22;41951;49.022;12.066;2023-04-21T10:09:08;15.90;99.90
56076;DHT22;41951;49.022;12.066;2023-04-21T10:11:35;16.10;99.90
56076;DHT22;41951;49.022;12.066;2023-04-21T10:14:02;16.10;99.90
56076;DHT22;41951;49.022;12.066;2023-04-21T10:16:27;16.10;99.90
56076;DHT22;41951;49.022;12.066;2023-04-21T10:18:53;16.20;99.90
56076;DHT22;41951;49.022;12.066;2023-04-21T10:21:20;16.30;99.90
56076;DHT22;41951;49.022;12.066;2023-04-21T10:23:50;16.20;99.90
56076;DHT22;41951;49.022;12.066;2023-04-21T10:26:26;16.20;99.90
56076;DHT22;41951;49.022;12.066;2023-04-21T10:29:00;16.30;99.90
56076;DHT22;41951;49.022;12.066;2023-04-21T10:31:51;16.40;99.90
56076;DHT22;41951;49.022;12.066;2023-04-21T10:34:36;16.50;99.90
56076;DHT22;41951;49.022;12.066;2023-04-21T10:39:43;16.70;99.90
56076;DHT22;41951;49.022;12.066;2023-04-21T10:44:44;16.90;99.90
56076;DHT22;41951;49.022;12.066;2023-04-21T10:47:26;17.00;99.90
56076;DHT22;41951;49.022;12.066;2023-04-21T10:49:52;17.00;99.90
56076;DHT22;41951;49.022;12.066;2023-04-21T10:52:19;17.00;99.90
56076;DHT22;41951;49.022;12.066;2023-04-21T10:57:16;17.10;99.90
56076;DHT22;41951;49.022;12.066;2023-04-21T10:59:42;17.10;99.90
56076;DHT22;41951;49.022;12.066;2023-04-21T11:02:12;17.20;99.90
56076;DHT22;41951;49.022;12.066;2023-04-21T11:04:38;17.20;99.90
56076;DHT22;41951;49.022;12.066;2023-04-21T11:07:12;17.20;99.90
56076;DHT22;41951;49.022;12.066;2023-04-21T11:09:39;17.30;99.90
56076;DHT22;41951;49.022;12.066;2023-04-21T11:12:10;17.30;99.90
56076;DHT22;41951;49.022;12.066;2023-04-21T11:14:38;17.30;99.90
56076;DHT22;41951;49.022;12.066;2023-04-21T11:17:10;17.30;99.90
56076;DHT22;41951;49.022;12.066;2023-04-21T11:19:36;17.30;99.90
56076;DHT22;41951;49.022;12.066;2023-04-21T11:22:03;17.40;99.90
56076;DHT22;41951;49.022;12.066;2023-04-21T11:24:30;17.50;99.90
56076;DHT22;41951;49.022;12.066;2023-04-21T11:26:56;17.50;99.90
56076;DHT22;41951;49.022;12.066;2023-04-21T11:29:23;17.60;99.90
56076;DHT22;41951;49.022;12.066;2023-04-21T11:31:49;17.70;99.90
56076;DHT22;41951;49.022;12.066;2023-04-21T11:34:15;17.70;99.90
56076;DHT22;41951;49.022;12.066;2023-04-21T11:36:45;17.80;99.90
56076;DHT22;41951;49.022;12.066;2023-04-21T11:39:13;17.90;99.90
56076;DHT22;41951;49.022;12.066;2023-04-21T11:41:47;18.00;99.90
56076;DHT22;41951;49.022;12.066;2023-04-21T11:44:29;18.00;99.90
56076;DHT22;41951;49.022;12.066;2023-04-21T11:46:56;18.10;99.90
56076;DHT22;41951;49.022;12.066;2023-04-21T11:49:24;18.20;99.90
56076;DHT22;41951;49.022;12.066;2023-04-21T11:51:50;18.30;99.90
56076;DHT22;41951;49.022;12.066;2023-04-21T11:54:17;18.40;99.90
56076;DHT22;41951;49.022;12.066;2023-04-21T11:56:45;18.40;99.90
56076;DHT22;41951;49.022;12.066;2023-04-21T11:59:13;18.50;99.90
56076;DHT22;41951;49.022;12.066;2023-04-21T12:01:49;18.60;99.70
56076;DHT22;41951;49.022;12.066;2023-04-21T12:04:17;18.60;99.10
56076;DHT22;41951;49.022;12.066;2023-04-21T12:06:54;18.60;99.80
56076;DHT22;41951;49.022;12.066;2023-04-21T12:09:20;18.70;99.50
56076;DHT22;41951;49.022;12.066;2023-04-21T12:11:48;18.90;99.60
56076;DHT22;41951;49.022;12.066;2023-04-21T12:14:15;19.00;99.10
56076;DHT22;41951;49.022;12.066;2023-04-21T12:16:41;19.10;98.70
56076;DHT22;41951;49.022;12.066;2023-04-21T12:19:07;19.20;98.20
56076;DHT22;41951;49.022;12.066;2023-04-21T12:21:35;19.30;95.80
56076;DHT22;41951;49.022;12.066;2023-04-21T12:24:01;19.40;97.50
56076;DHT22;41951;49.022;12.066;2023-04-21T12:26:26;19.40;96.80
56076;DHT22;41951;49.022;12.066;2023-04-21T12:28:53;19.50;96.50
56076;DHT22;41951;49.022;12.066;2023-04-21T12:31:18;19.60;96.80
56076;DHT22;41951;49.022;12.066;2023-04-21T12:33:44;19.70;96.00
56076;DHT22;41951;49.022;12.066;2023-04-21T12:36:10;19.90;95.90
56076;DHT22;41951;49.022;12.066;2023-04-21T12:38:35;20.00;95.30
56076;DHT22;41951;49.022;12.066;2023-04-21T12:41:01;20.10;95.10
56076;DHT22;41951;49.022;12.066;2023-04-21T12:43:26;20.20;95.30
56076;DHT22;41951;49.022;12.066;2023-04-21T12:45:52;20.20;94.70
56076;DHT22;41951;49.022;12.066;2023-04-21T12:48:18;20.20;94.90
56076;DHT22;41951;49.022;12.066;2023-04-21T12:50:46;20.20;94.60
56076;DHT22;41951;49.022;12.066;2023-04-21T12:53:12;20.20;94.40
56076;DHT22;41951;49.022;12.066;2023-04-21T12:55:38;20.20;94.40
56076;DHT22;41951;49.022;12.066;2023-04-21T12:58:04;20.30;94.00
56076;DHT22;41951;49.022;12.066;2023-04-21T13:00:29;20.30;93.90
56076;DHT22;41951;49.022;12.066;2023-04-21T13:02:56;20.30;93.90
56076;DHT22;41951;49.022;12.066;2023-04-21T13:05:21;20.30;94.00
56076;DHT22;41951;49.022;12.066;2023-04-21T13:07:47;20.50;94.00
56076;DHT22;41951;49.022;12.066;2023-04-21T13:10:12;20.60;93.80
56076;DHT22;41951;49.022;12.066;2023-04-21T13:12:38;20.70;93.70
56076;DHT22;41951;49.022;12.066;2023-04-21T13:15:04;20.80;92.70
56076;DHT22;41951;49.022;12.066;2023-04-21T13:17:30;21.00;93.10
56076;DHT22;41951;49.022;12.066;2023-04-21T13:19:56;21.10;92.90
56076;DHT22;41951;49.022;12.066;2023-04-21T13:22:22;21.20;92.80
56076;DHT22;41951;49.022;12.066;2023-04-21T13:24:48;21.30;92.00
56076;DHT22;41951;49.022;12.066;2023-04-21T13:27:13;21.40;92.00
56076;DHT22;41951;49.022;12.066;2023-04-21T13:29:39;21.50;90.90
56076;DHT22;41951;49.022;12.066;2023-04-21T13:32:06;21.60;90.30
56076;DHT22;41951;49.022;12.066;2023-04-21T13:34:32;21.60;89.30
56076;DHT22;41951;49.022;12.066;2023-04-21T13:36:59;21.50;87.80
56076;DHT22;41951;49.022;12.066;2023-04-21T13:39:25;21.60;86.90
56076;DHT22;41951;49.022;12.066;2023-04-21T13:41:51;21.60;87.20
56076;DHT22;41951;49.022;12.066;2023-04-21T13:44:18;21.60;84.70
56076;DHT22;41951;49.022;12.066;2023-04-21T13:46:43;21.80;84.80
56076;DHT22;41951;49.022;12.066;2023-04-21T13:49:09;22.00;84.20
56076;DHT22;41951;49.022;12.066;2023-04-21T13:51:35;22.00;82.90
56076;DHT22;41951;49.022;12.066;2023-04-21T13:54:01;22.20;83.20
56076;DHT22;41951;49.022;12.066;2023-04-21T13:56:26;22.30;82.50
56076;DHT22;41951;49.022;12.066;2023-04-21T13:58:52;22.30;82.40
56076;DHT22;41951;49.022;12.066;2023-04-21T14:01:19;22.50;81.60
56076;DHT22;41951;49.022;12.066;2023-04-21T14:03:45;22.60;80.50
56076;DHT22;41951;49.022;12.066;2023-04-21T14:06:10;22.60;79.80
56076;DHT22;41951;49.022;12.066;2023-04-21T14:08:36;22.50;79.90
56076;DHT22;41951;49.022;12.066;2023-04-21T14:11:02;22.50;79.40
56076;DHT22;41951;49.022;12.066;2023-04-21T14:13:28;22.50;79.10
56076;DHT22;41951;49.022;12.066;2023-04-21T14:15:55;22.70;79.60
56076;DHT22;41951;49.022;12.066;2023-04-21T14:18:22;22.70;78.20
56076;DHT22;41951;49.022;12.066;2023-04-21T14:20:48;23.10;78.40
56076;DHT22;41951;49.022;12.066;2023-04-21T14:23:13;23.20;77.20
56076;DHT22;41951;49.022;12.066;2023-04-21T14:25:39;23.20;77.40
56076;DHT22;41951;49.022;12.066;2023-04-21T14:28:05;23.40;76.20
56076;DHT22;41951;49.022;12.066;2023-04-21T14:30:34;23.40;73.50
56076;DHT22;41951;49.022;12.066;2023-04-21T14:33:01;23.10;73.10
56076;DHT22;41951;49.022;12.066;2023-04-21T14:35:26;23.10;72.30
56076;DHT22;41951;49.022;12.066;2023-04-21T14:37:52;23.10;71.50
56076;DHT22;41951;49.022;12.066;2023-04-21T14:40:17;23.00;70.80
56076;DHT22;41951;49.022;12.066;2023-04-21T14:42:43;23.10;71.80
56076;DHT22;41951;49.022;12.066;2023-04-21T14:45:09;23.50;71.50
56076;DHT22;41951;49.022;12.066;2023-04-21T14:47:36;23.80;70.80
56076;DHT22;41951;49.022;12.066;2023-04-21T14:50:02;24.00;70.40
56076;DHT22;41951;49.022;12.066;2023-04-21T14:52:34;23.80;69.20
56076;DHT22;41951;49.022;12.066;2023-04-21T14:55:00;23.80;68.30
56076;DHT22;41951;49.022;12.066;2023-04-21T14:57:26;24.00;66.50
56076;DHT22;41951;49.022;12.066;2023-04-21T14:59:52;23.80;67.10
56076;DHT22;41951;49.022;12.066;2023-04-21T15:02:18;23.60;66.80
56076;DHT22;41951;49.022;12.066;2023-04-21T15:04:44;23.60;67.30
56076;DHT22;41951;49.022;12.066;2023-04-21T15:07:10;23.90;67.60
56076;DHT22;41951;49.022;12.066;2023-04-21T15:09:36;24.50;67.50
56076;DHT22;41951;49.022;12.066;2023-04-21T15:12:01;25.10;67.00
56076;DHT22;41951;49.022;12.066;2023-04-21T15:14:27;25.70;66.10
56076;DHT22;41951;49.022;12.066;2023-04-21T15:16:52;26.00;64.50
56076;DHT22;41951;49.022;12.066;2023-04-21T15:19:18;27.20;63.30
56076;DHT22;41951;49.022;12.066;2023-04-21T15:21:44;29.00;60.60
56076;DHT22;41951;49.022;12.066;2023-04-21T15:24:09;30.60;60.60
56076;DHT22;41951;49.022;12.066;2023-04-21T15:26:35;31.70;54.60
56076;DHT22;41951;49.022;12.066;2023-04-21T15:29:02;32.70;55.40